sensor_id;sensor_type;location;lat;lon;timestamp;temperature;humidity
67101;DHT22;54019;61.746;16.106;2023-02-03T00:00:56;22.30;26.30
67101;DHT22;54019;61.746;16.106;2023-02-03T00:03:24;22.30;26.20
67101;DHT22;54019;61.746;16.106;2023-02-03T00:05:49;22.30;26.20
67101;DHT22;54019;61.746;16.106;2023-02-03T00:08:16;22.30;26.20
67101;DHT22;54019;61.746;16.106;2023-02-03T00:10:43;22.20;26.10
67101;DHT22;54019;61.746;16.106;2023-02-03T00:13:09;22.20;26.20
67101;DHT22;54019;61.746;16.106;2023-02-03T00:15:35;22.20;26.30
67101;DHT22;54019;61.746;16.106;2023-02-03T00:18:01;22.20;26.30
67101;DHT22;54019;61.746;16.106;2023-02-03T00:20:28;22.10;26.40
67101;DHT22;54019;61.746;16.106;2023-02-03T00:22:54;22.10;26.50
67101;DHT22;54019;61.746;16.106;2023-02-03T00:25:27;22.10;26.40
67101;DHT22;54019;61.746;16.106;2023-02-03T00:27:53;22.10;26.40
67101;DHT22;54019;61.746;16.106;2023-02-03T00:30:18;22.10;26.40
67101;DHT22;54019;61.746;16.106;2023-02-03T00:32:44;22.10;26.40
67101;DHT22;54019;61.746;16.106;2023-02-03T00:35:10;22.10;26.30
67101;DHT22;54019;61.746;16.106;2023-02-03T00:37:37;22.20;26.30
67101;DHT22;54019;61.746;16.106;2023-02-03T00:40:03;22.20;26.20
67101;DHT22;54019;61.746;16.106;2023-02-03T00:42:29;22.20;26.10
67101;DHT22;54019;61.746;16.106;2023-02-03T00:44:55;22.30;26.10
67101;DHT22;54019;61.746;16.106;2023-02-03T00:47:21;22.20;25.90
67101;DHT22;54019;61.746;16.106;2023-02-03T00:49:47;22.20;25.90
67101;DHT22;54019;61.746;16.106;2023-02-03T00:52:12;22.20;25.80
67101;DHT22;54019;61.746;16.106;2023-02-03T00:54:40;22.20;25.90
67101;DHT22;54019;61.746;16.106;2023-02-03T00:57:05;22.20;25.90
67101;DHT22;54019;61.746;16.106;2023-02-03T00:59:31;22.10;25.90
67101;DHT22;54019;61.746;16.106;2023-02-03T01:01:57;22.10;26.00
67101;DHT22;54019;61.746;16.106;2023-02-03T01:04:23;22.00;25.90
67101;DHT22;54019;61.746;16.106;2023-02-03T01:06:49;22.00;25.90
67101;DHT22;54019;61.746;16.106;2023-02-03T01:09:14;22.00;25.90
67101;DHT22;54019;61.746;16.106;2023-02-03T01:11:41;22.00;25.90
67101;DHT22;54019;61.746;16.106;2023-02-03T01:14:07;22.00;25.90
67101;DHT22;54019;61.746;16.106;2023-02-03T01:16:33;22.10;25.90
67101;DHT22;54019;61.746;16.106;2023-02-03T01:18:59;22.10;25.90
67101;DHT22;54019;61.746;16.106;2023-02-03T01:21:25;22.10;26.40
67101;DHT22;54019;61.746;16.106;2023-02-03T01:23:52;22.10;25.70
67101;DHT22;54019;61.746;16.106;2023-02-03T01:26:20;22.10;25.60
67101;DHT22;54019;61.746;16.106;2023-02-03T01:28:51;22.20;25.50
67101;DHT22;54019;61.746;16.106;2023-02-03T01:31:19;22.10;25.60
67101;DHT22;54019;61.746;16.106;2023-02-03T01:33:45;22.20;25.50
67101;DHT22;54019;61.746;16.106;2023-02-03T01:36:11;22.10;25.40
67101;DHT22;54019;61.746;16.106;2023-02-03T01:38:38;22.10;25.50
67101;DHT22;54019;61.746;16.106;2023-02-03T01:41:08;22.10;25.50
67101;DHT22;54019;61.746;16.106;2023-02-03T01:43:36;22.10;25.50
67101;DHT22;54019;61.746;16.106;2023-02-03T01:46:05;22.00;25.50
67101;DHT22;54019;61.746;16.106;2023-02-03T01:48:32;22.00;25.50
67101;DHT22;54019;61.746;16.106;2023-02-03T01:51:01;22.00;25.50
67101;DHT22;54019;61.746;16.106;2023-02-03T01:53:28;22.00;25.50
67101;DHT22;54019;61.746;16.106;2023-02-03T01:55:55;22.00;25.40
67101;DHT22;54019;61.746;16.106;2023-02-03T01:58:23;22.00;25.30
67101;DHT22;54019;61.746;16.106;2023-02-03T02:00:52;22.00;25.30
67101;DHT22;54019;61.746;16.106;2023-02-03T02:03:22;22.00;25.40
67101;DHT22;54019;61.746;16.106;2023-02-03T02:05:51;22.10;25.40
67101;DHT22;54019;61.746;16.106;2023-02-03T02:08:19;22.10;25.30
67101;DHT22;54019;61.746;16.106;2023-02-03T02:10:46;22.10;25.20
67101;DHT22;54019;61.746;16.106;2023-02-03T02:13:12;22.20;25.10
67101;DHT22;54019;61.746;16.106;2023-02-03T02:15:45;22.10;25.10
67101;DHT22;54019;61.746;16.106;2023-02-03T02:18:27;22.20;25.00
67101;DHT22;54019;61.746;16.106;2023-02-03T02:27:12;22.10;25.10
67101;DHT22;54019;61.746;16.106;2023-02-03T02:33:06;22.00;25.20
67101;DHT22;54019;61.746;16.106;2023-02-03T02:35:50;21.90;25.00
67101;DHT22;54019;61.746;16.106;2023-02-03T02:38:36;22.00;25.00
67101;DHT22;54019;61.746;16.106;2023-02-03T02:41:06;22.00;25.00
67101;DHT22;54019;61.746;16.106;2023-02-03T02:43:39;22.00;25.00
67101;DHT22;54019;61.746;16.106;2023-02-03T02:46:09;22.00;25.00
67101;DHT22;54019;61.746;16.106;2023-02-03T02:48:41;22.00;24.90
67101;DHT22;54019;61.746;16.106;2023-02-03T02:51:08;22.10;24.70
67101;DHT22;54019;61.746;16.106;2023-02-03T02:53:38;22.10;24.70
67101;DHT22;54019;61.746;16.106;2023-02-03T02:56:06;22.10;24.50
67101;DHT22;54019;61.746;16.106;2023-02-03T02:58:34;22.10;24.50
67101;DHT22;54019;61.746;16.106;2023-02-03T03:01:01;22.10;24.40
67101;DHT22;54019;61.746;16.106;2023-02-03T03:03:27;22.10;24.30
67101;DHT22;54019;61.746;16.106;2023-02-03T03:05:56;22.10;24.30
67101;DHT22;54019;61.746;16.106;2023-02-03T03:08:29;22.00;24.30
67101;DHT22;54019;61.746;16.106;2023-02-03T03:10:56;22.00;24.20
67101;DHT22;54019;61.746;16.106;2023-02-03T03:13:24;21.90;24.20
67101;DHT22;54019;61.746;16.106;2023-02-03T03:15:53;21.90;24.40
67101;DHT22;54019;61.746;16.106;2023-02-03T03:18:23;22.00;24.40
67101;DHT22;54019;61.746;16.106;2023-02-03T03:20:54;21.90;24.40
67101;DHT22;54019;61.746;16.106;2023-02-03T03:23:25;22.00;24.40
67101;DHT22;54019;61.746;16.106;2023-02-03T03:25:55;22.00;24.30
67101;DHT22;54019;61.746;16.106;2023-02-03T03:28:24;22.00;24.20
67101;DHT22;54019;61.746;16.106;2023-02-03T03:30:52;22.10;24.20
67101;DHT22;54019;61.746;16.106;2023-02-03T03:33:19;22.10;24.10
67101;DHT22;54019;61.746;16.106;2023-02-03T03:35:59;22.10;24.10
67101;DHT22;54019;61.746;16.106;2023-02-03T03:38:30;22.10;24.10
67101;DHT22;54019;61.746;16.106;2023-02-03T03:41:02;22.10;24.10
67101;DHT22;54019;61.746;16.106;2023-02-03T03:43:30;22.10;24.00
67101;DHT22;54019;61.746;16.106;2023-02-03T03:46:00;22.10;24.10
67101;DHT22;54019;61.746;16.106;2023-02-03T03:48:33;22.00;24.00
67101;DHT22;54019;61.746;16.106;2023-02-03T03:51:04;22.00;24.10
67101;DHT22;54019;61.746;16.106;2023-02-03T03:53:34;22.00;24.10
67101;DHT22;54019;61.746;16.106;2023-02-03T03:56:03;22.00;24.10
67101;DHT22;54019;61.746;16.106;2023-02-03T03:58:31;22.00;24.10
67101;DHT22;54019;61.746;16.106;2023-02-03T04:00:59;22.00;24.10
67101;DHT22;54019;61.746;16.106;2023-02-03T04:03:31;22.00;24.00
67101;DHT22;54019;61.746;16.106;2023-02-03T04:05:57;22.00;24.00
67101;DHT22;54019;61.746;16.106;2023-02-03T04:08:24;22.00;23.90
67101;DHT22;54019;61.746;16.106;2023-02-03T04:10:50;22.00;23.90
67101;DHT22;54019;61.746;16.106;2023-02-03T04:13:16;22.00;23.80
67101;DHT22;54019;61.746;16.106;2023-02-03T04:15:42;22.10;23.80
67101;DHT22;54019;61.746;16.106;2023-02-03T04:18:08;22.10;23.70
67101;DHT22;54019;61.746;16.106;2023-02-03T04:20:36;22.10;23.70
67101;DHT22;54019;61.746;16.106;2023-02-03T04:23:02;22.10;23.50
67101;DHT22;54019;61.746;16.106;2023-02-03T04:25:29;22.10;23.50
67101;DHT22;54019;61.746;16.106;2023-02-03T04:27:55;22.10;23.50
67101;DHT22;54019;61.746;16.106;2023-02-03T04:30:21;22.10;23.50
67101;DHT22;54019;61.746;16.106;2023-02-03T04:32:46;22.10;23.60
67101;DHT22;54019;61.746;16.106;2023-02-03T04:35:13;22.00;23.60
67101;DHT22;54019;61.746;16.106;2023-02-03T04:37:39;22.00;23.70
67101;DHT22;54019;61.746;16.106;2023-02-03T04:40:06;21.90;23.70
67101;DHT22;54019;61.746;16.106;2023-02-03T04:42:35;21.90;23.70
67101;DHT22;54019;61.746;16.106;2023-02-03T04:45:01;21.90;23.70
67101;DHT22;54019;61.746;16.106;2023-02-03T04:47:27;21.90;23.60
67101;DHT22;54019;61.746;16.106;2023-02-03T04:49:53;21.90;23.60
67101;DHT22;54019;61.746;16.106;2023-02-03T04:52:18;22.00;23.50
67101;DHT22;54019;61.746;16.106;2023-02-03T04:54:44;22.00;23.50
67101;DHT22;54019;61.746;16.106;2023-02-03T04:57:10;22.00;23.50
67101;DHT22;54019;61.746;16.106;2023-02-03T04:59:37;22.00;23.60
67101;DHT22;54019;61.746;16.106;2023-02-03T05:02:03;22.00;23.40
67101;DHT22;54019;61.746;16.106;2023-02-03T05:04:30;22.00;23.50
67101;DHT22;54019;61.746;16.106;2023-02-03T05:06:55;22.00;23.90
67101;DHT22;54019;61.746;16.106;2023-02-03T05:09:21;22.00;24.00
67101;DHT22;54019;61.746;16.106;2023-02-03T05:11:47;22.00;24.10
67101;DHT22;54019;61.746;16.106;2023-02-03T05:14:13;22.00;24.10
67101;DHT22;54019;61.746;16.106;2023-02-03T05:16:40;22.00;24.10
67101;DHT22;54019;61.746;16.106;2023-02-03T05:19:06;22.00;24.10
67101;DHT22;54019;61.746;16.106;2023-02-03T05:21:32;22.00;24.20
67101;DHT22;54019;61.746;16.106;2023-02-03T05:23:57;22.00;24.20
67101;DHT22;54019;61.746;16.106;2023-02-03T05:26:23;21.90;24.20
67101;DHT22;54019;61.746;16.106;2023-02-03T05:28:49;21.90;24.20
67101;DHT22;54019;61.746;16.106;2023-02-03T05:31:14;21.90;24.20
67101;DHT22;54019;61.746;16.106;2023-02-03T05:33:42;21.90;24.10
67101;DHT22;54019;61.746;16.106;2023-02-03T05:36:08;22.00;24.20
67101;DHT22;54019;61.746;16.106;2023-02-03T05:38:34;22.00;24.20
67101;DHT22;54019;61.746;16.106;2023-02-03T05:41:00;22.00;24.20
67101;DHT22;54019;61.746;16.106;2023-02-03T05:43:26;22.10;24.10
67101;DHT22;54019;61.746;16.106;2023-02-03T05:45:52;22.10;23.90
67101;DHT22;54019;61.746;16.106;2023-02-03T05:48:18;22.10;23.90
67101;DHT22;54019;61.746;16.106;2023-02-03T05:50:45;22.10;24.00
67101;DHT22;54019;61.746;16.106;2023-02-03T05:53:11;22.10;24.10
67101;DHT22;54019;61.746;16.106;2023-02-03T05:55:37;22.00;24.00
67101;DHT22;54019;61.746;16.106;2023-02-03T05:58:03;22.00;24.10
67101;DHT22;54019;61.746;16.106;2023-02-03T06:00:29;22.00;24.10
67101;DHT22;54019;61.746;16.106;2023-02-03T06:02:56;22.00;24.10
67101;DHT22;54019;61.746;16.106;2023-02-03T06:05:23;22.00;24.10
67101;DHT22;54019;61.746;16.106;2023-02-03T06:07:51;22.00;24.10
67101;DHT22;54019;61.746;16.106;2023-02-03T06:10:17;21.90;24.00
67101;DHT22;54019;61.746;16.106;2023-02-03T06:12:43;22.00;24.20
67101;DHT22;54019;61.746;16.106;2023-02-03T06:15:10;22.00;24.20
67101;DHT22;54019;61.746;16.106;2023-02-03T06:17:36;22.10;24.60
67101;DHT22;54019;61.746;16.106;2023-02-03T06:20:02;22.10;24.30
67101;DHT22;54019;61.746;16.106;2023-02-03T06:22:28;22.10;24.40
67101;DHT22;54019;61.746;16.106;2023-02-03T06:24:55;22.20;24.30
67101;DHT22;54019;61.746;16.106;2023-02-03T06:27:21;22.10;24.10
67101;DHT22;54019;61.746;16.106;2023-02-03T06:29:47;22.10;24.20
67101;DHT22;54019;61.746;16.106;2023-02-03T06:32:12;22.10;24.20
67101;DHT22;54019;61.746;16.106;2023-02-03T06:34:38;22.20;24.00
67101;DHT22;54019;61.746;16.106;2023-02-03T06:37:04;22.10;23.90
67101;DHT22;54019;61.746;16.106;2023-02-03T06:39:30;22.10;24.00
67101;DHT22;54019;61.746;16.106;2023-02-03T06:41:57;22.10;23.90
67101;DHT22;54019;61.746;16.106;2023-02-03T06:44:23;22.10;23.70
67101;DHT22;54019;61.746;16.106;2023-02-03T06:46:48;22.10;23.70
67101;DHT22;54019;61.746;16.106;2023-02-03T06:49:14;22.10;23.70
67101;DHT22;54019;61.746;16.106;2023-02-03T06:51:40;22.10;23.60
67101;DHT22;54019;61.746;16.106;2023-02-03T06:54:06;22.00;23.50
67101;DHT22;54019;61.746;16.106;2023-02-03T06:56:31;22.10;23.70
67101;DHT22;54019;61.746;16.106;2023-02-03T06:58:59;22.10;23.70
67101;DHT22;54019;61.746;16.106;2023-02-03T07:01:24;22.00;23.80
67101;DHT22;54019;61.746;16.106;2023-02-03T07:03:50;22.00;23.70
67101;DHT22;54019;61.746;16.106;2023-02-03T07:06:16;22.00;23.70
67101;DHT22;54019;61.746;16.106;2023-02-03T07:08:43;22.00;23.60
67101;DHT22;54019;61.746;16.106;2023-02-03T07:11:09;22.00;23.60
67101;DHT22;54019;61.746;16.106;2023-02-03T07:13:34;22.00;23.50
67101;DHT22;54019;61.746;16.106;2023-02-03T07:16:02;22.00;23.50
67101;DHT22;54019;61.746;16.106;2023-02-03T07:18:27;22.00;23.00
67101;DHT22;54019;61.746;16.106;2023-02-03T07:20:53;22.00;23.30
67101;DHT22;54019;61.746;16.106;2023-02-03T07:23:19;22.00;23.30
67101;DHT22;54019;61.746;16.106;2023-02-03T07:25:45;22.10;23.30
67101;DHT22;54019;61.746;16.106;2023-02-03T07:28:10;22.10;23.10
67101;DHT22;54019;61.746;16.106;2023-02-03T07:30:36;22.10;23.10
67101;DHT22;54019;61.746;16.106;2023-02-03T07:33:03;22.10;23.10
67101;DHT22;54019;61.746;16.106;2023-02-03T07:35:29;22.10;23.10
67101;DHT22;54019;61.746;16.106;2023-02-03T07:37:55;22.10;23.00
67101;DHT22;54019;61.746;16.106;2023-02-03T07:40:20;22.10;23.00
67101;DHT22;54019;61.746;16.106;2023-02-03T07:42:47;22.10;23.00
67101;DHT22;54019;61.746;16.106;2023-02-03T07:45:15;22.00;23.00
67101;DHT22;54019;61.746;16.106;2023-02-03T07:47:42;22.00;23.10
67101;DHT22;54019;61.746;16.106;2023-02-03T07:50:10;22.00;23.20
67101;DHT22;54019;61.746;16.106;2023-02-03T07:52:36;22.00;23.20
67101;DHT22;54019;61.746;16.106;2023-02-03T07:55:03;22.00;23.30
67101;DHT22;54019;61.746;16.106;2023-02-03T07:57:28;22.00;23.30
67101;DHT22;54019;61.746;16.106;2023-02-03T07:59:54;22.00;23.30
67101;DHT22;54019;61.746;16.106;2023-02-03T08:02:20;22.00;23.30
67101;DHT22;54019;61.746;16.106;2023-02-03T08:04:46;22.00;23.30
67101;DHT22;54019;61.746;16.106;2023-02-03T08:07:13;22.00;23.30
67101;DHT22;54019;61.746;16.106;2023-02-03T08:09:39;22.00;23.30
67101;DHT22;54019;61.746;16.106;2023-02-03T08:12:05;22.00;23.30
67101;DHT22;54019;61.746;16.106;2023-02-03T08:14:31;22.00;23.20
67101;DHT22;54019;61.746;16.106;2023-02-03T08:16:56;22.00;23.20
67101;DHT22;54019;61.746;16.106;2023-02-03T08:19:22;22.00;23.00
67101;DHT22;54019;61.746;16.106;2023-02-03T08:21:48;22.10;23.10
67101;DHT22;54019;61.746;16.106;2023-02-03T08:24:15;22.10;23.00
67101;DHT22;54019;61.746;16.106;2023-02-03T08:26:41;22.10;22.90
67101;DHT22;54019;61.746;16.106;2023-02-03T08:29:06;22.20;23.00
67101;DHT22;54019;61.746;16.106;2023-02-03T08:31:32;22.10;23.00
67101;DHT22;54019;61.746;16.106;2023-02-03T08:33:58;22.10;23.00
67101;DHT22;54019;61.746;16.106;2023-02-03T08:36:24;22.10;23.00
67101;DHT22;54019;61.746;16.106;2023-02-03T08:38:50;22.10;23.10
67101;DHT22;54019;61.746;16.106;2023-02-03T08:41:17;22.00;23.20
67101;DHT22;54019;61.746;16.106;2023-02-03T08:43:43;22.00;23.20
67101;DHT22;54019;61.746;16.106;2023-02-03T08:46:10;22.00;23.20
67101;DHT22;54019;61.746;16.106;2023-02-03T08:48:36;22.00;23.30
67101;DHT22;54019;61.746;16.106;2023-02-03T08:51:09;22.00;23.40
67101;DHT22;54019;61.746;16.106;2023-02-03T08:53:35;22.00;23.30
67101;DHT22;54019;61.746;16.106;2023-02-03T08:56:04;22.00;23.30
67101;DHT22;54019;61.746;16.106;2023-02-03T08:58:31;22.00;23.30
67101;DHT22;54019;61.746;16.106;2023-02-03T09:01:05;22.00;23.20
67101;DHT22;54019;61.746;16.106;2023-02-03T09:03:31;22.10;23.20
67101;DHT22;54019;61.746;16.106;2023-02-03T09:05:56;22.10;23.20
67101;DHT22;54019;61.746;16.106;2023-02-03T09:08:22;22.10;23.10
67101;DHT22;54019;61.746;16.106;2023-02-03T09:10:48;22.10;23.00
67101;DHT22;54019;61.746;16.106;2023-02-03T09:13:14;22.20;22.90
67101;DHT22;54019;61.746;16.106;2023-02-03T09:15:41;22.10;22.90
67101;DHT22;54019;61.746;16.106;2023-02-03T09:18:07;22.20;22.90
67101;DHT22;54019;61.746;16.106;2023-02-03T09:20:32;22.20;22.80
67101;DHT22;54019;61.746;16.106;2023-02-03T09:22:58;22.20;22.80
67101;DHT22;54019;61.746;16.106;2023-02-03T09:25:24;22.20;22.90
67101;DHT22;54019;61.746;16.106;2023-02-03T09:27:50;22.20;22.80
67101;DHT22;54019;61.746;16.106;2023-02-03T09:30:16;22.10;22.90
67101;DHT22;54019;61.746;16.106;2023-02-03T09:32:43;22.10;23.00
67101;DHT22;54019;61.746;16.106;2023-02-03T09:35:09;22.00;23.00
67101;DHT22;54019;61.746;16.106;2023-02-03T09:37:35;22.10;23.10
67101;DHT22;54019;61.746;16.106;2023-02-03T09:40:01;22.10;23.10
67101;DHT22;54019;61.746;16.106;2023-02-03T09:45:31;22.00;23.00
67101;DHT22;54019;61.746;16.106;2023-02-03T09:48:02;22.00;23.10
67101;DHT22;54019;61.746;16.106;2023-02-03T09:50:32;22.00;23.10
67101;DHT22;54019;61.746;16.106;2023-02-03T09:53:03;22.10;23.10
67101;DHT22;54019;61.746;16.106;2023-02-03T09:55:34;22.10;23.10
67101;DHT22;54019;61.746;16.106;2023-02-03T09:58:04;22.10;23.10
67101;DHT22;54019;61.746;16.106;2023-02-03T10:00:34;22.20;23.00
67101;DHT22;54019;61.746;16.106;2023-02-03T10:03:06;22.20;22.90
67101;DHT22;54019;61.746;16.106;2023-02-03T10:05:54;22.20;22.70
67101;DHT22;54019;61.746;16.106;2023-02-03T10:08:34;22.20;22.70
67101;DHT22;54019;61.746;16.106;2023-02-03T10:11:12;22.20;22.70
67101;DHT22;54019;61.746;16.106;2023-02-03T10:13:49;22.20;22.70
67101;DHT22;54019;61.746;16.106;2023-02-03T10:16:28;22.20;22.70
67101;DHT22;54019;61.746;16.106;2023-02-03T10:19:01;22.20;23.60
67101;DHT22;54019;61.746;16.106;2023-02-03T10:21:33;22.10;23.00
67101;DHT22;54019;61.746;16.106;2023-02-03T10:24:00;22.20;23.10
67101;DHT22;54019;61.746;16.106;2023-02-03T10:26:28;22.10;23.10
67101;DHT22;54019;61.746;16.106;2023-02-03T10:28:55;22.10;23.00
67101;DHT22;54019;61.746;16.106;2023-02-03T10:31:22;22.10;23.10
67101;DHT22;54019;61.746;16.106;2023-02-03T10:33:57;22.10;23.20
67101;DHT22;54019;61.746;16.106;2023-02-03T10:36:32;22.10;23.20
67101;DHT22;54019;61.746;16.106;2023-02-03T10:39:11;22.10;23.20
67101;DHT22;54019;61.746;16.106;2023-02-03T10:41:40;22.10;23.80
67101;DHT22;54019;61.746;16.106;2023-02-03T10:44:06;22.10;23.20
67101;DHT22;54019;61.746;16.106;2023-02-03T10:46:34;22.10;23.20
67101;DHT22;54019;61.746;16.106;2023-02-03T10:49:03;22.20;23.10
67101;DHT22;54019;61.746;16.106;2023-02-03T10:51:35;22.20;23.00
67101;DHT22;54019;61.746;16.106;2023-02-03T10:54:00;22.20;22.90
67101;DHT22;54019;61.746;16.106;2023-02-03T10:56:30;22.20;22.80
67101;DHT22;54019;61.746;16.106;2023-02-03T10:58:57;22.30;22.80
67101;DHT22;54019;61.746;16.106;2023-02-03T11:01:25;22.30;23.00
67101;DHT22;54019;61.746;16.106;2023-02-03T11:03:57;22.20;22.80
67101;DHT22;54019;61.746;16.106;2023-02-03T11:06:59;22.20;22.70
67101;DHT22;54019;61.746;16.106;2023-02-03T11:09:30;22.20;22.80
67101;DHT22;54019;61.746;16.106;2023-02-03T11:12:09;22.20;22.80
67101;DHT22;54019;61.746;16.106;2023-02-03T11:14:37;22.10;23.00
67101;DHT22;54019;61.746;16.106;2023-02-03T11:17:06;22.10;23.10
67101;DHT22;54019;61.746;16.106;2023-02-03T11:19:33;22.10;23.20
67101;DHT22;54019;61.746;16.106;2023-02-03T11:22:00;22.10;23.20
67101;DHT22;54019;61.746;16.106;2023-02-03T11:24:28;22.10;23.20
67101;DHT22;54019;61.746;16.106;2023-02-03T11:26:57;22.10;23.20
67101;DHT22;54019;61.746;16.106;2023-02-03T11:29:25;22.10;23.20
67101;DHT22;54019;61.746;16.106;2023-02-03T11:35:00;22.10;23.10
67101;DHT22;54019;61.746;16.106;2023-02-03T11:37:31;22.10;23.20
67101;DHT22;54019;61.746;16.106;2023-02-03T11:40:21;22.10;23.30
67101;DHT22;54019;61.746;16.106;2023-02-03T11:43:14;22.20;23.30
67101;DHT22;54019;61.746;16.106;2023-02-03T11:45:41;22.20;23.20
67101;DHT22;54019;61.746;16.106;2023-02-03T11:48:23;22.20;23.10
67101;DHT22;54019;61.746;16.106;2023-02-03T11:51:19;22.20;23.10
67101;DHT22;54019;61.746;16.106;2023-02-03T11:54:01;22.20;23.20
67101;DHT22;54019;61.746;16.106;2023-02-03T11:57:06;22.20;23.10
67101;DHT22;54019;61.746;16.106;2023-02-03T11:59:55;22.20;23.10
67101;DHT22;54019;61.746;16.106;2023-02-03T12:03:11;22.20;23.10
67101;DHT22;54019;61.746;16.106;2023-02-03T12:09:26;22.20;23.20
67101;DHT22;54019;61.746;16.106;2023-02-03T12:12:18;22.10;23.30
67101;DHT22;54019;61.746;16.106;2023-02-03T12:15:23;22.10;23.40
67101;DHT22;54019;61.746;16.106;2023-02-03T12:18:12;22.10;23.30
67101;DHT22;54019;61.746;16.106;2023-02-03T12:21:13;22.10;23.30
67101;DHT22;54019;61.746;16.106;2023-02-03T12:23:51;22.10;23.30
67101;DHT22;54019;61.746;16.106;2023-02-03T12:26:48;22.20;23.30
67101;DHT22;54019;61.746;16.106;2023-02-03T12:29:19;22.20;23.40
67101;DHT22;54019;61.746;16.106;2023-02-03T12:31:52;22.20;23.30
67101;DHT22;54019;61.746;16.106;2023-02-03T12:34:22;22.20;23.30
67101;DHT22;54019;61.746;16.106;2023-02-03T12:36:55;22.20;23.30
67101;DHT22;54019;61.746;16.106;2023-02-03T12:39:43;22.20;23.20
67101;DHT22;54019;61.746;16.106;2023-02-03T12:42:16;22.20;23.20
67101;DHT22;54019;61.746;16.106;2023-02-03T12:45:04;22.20;23.30
67101;DHT22;54019;61.746;16.106;2023-02-03T12:47:38;22.20;23.90
67101;DHT22;54019;61.746;16.106;2023-02-03T12:50:13;22.30;24.00
67101;DHT22;54019;61.746;16.106;2023-02-03T12:53:03;22.20;23.30
67101;DHT22;54019;61.746;16.106;2023-02-03T12:55:34;22.20;23.30
67101;DHT22;54019;61.746;16.106;2023-02-03T12:58:05;22.20;23.30
67101;DHT22;54019;61.746;16.106;2023-02-03T13:00:55;22.10;23.40
67101;DHT22;54019;61.746;16.106;2023-02-03T13:03:27;22.10;23.50
67101;DHT22;54019;61.746;16.106;2023-02-03T13:06:00;22.10;23.60
67101;DHT22;54019;61.746;16.106;2023-02-03T13:08:33;22.10;24.30
67101;DHT22;54019;61.746;16.106;2023-02-03T13:11:10;22.10;23.60
67101;DHT22;54019;61.746;16.106;2023-02-03T13:13:47;22.10;23.60
67101;DHT22;54019;61.746;16.106;2023-02-03T13:16:14;22.10;23.60
67101;DHT22;54019;61.746;16.106;2023-02-03T13:19:04;22.10;23.60
67101;DHT22;54019;61.746;16.106;2023-02-03T13:21:31;22.20;23.60
67101;DHT22;54019;61.746;16.106;2023-02-03T13:23:57;22.20;23.90
67101;DHT22;54019;61.746;16.106;2023-02-03T13:26:56;22.30;24.80
67101;DHT22;54019;61.746;16.106;2023-02-03T13:29:48;22.40;25.40
67101;DHT22;54019;61.746;16.106;2023-02-03T13:35:57;22.40;23.90
67101;DHT22;54019;61.746;16.106;2023-02-03T13:41:18;22.40;24.30
67101;DHT22;54019;61.746;16.106;2023-02-03T13:43:48;22.30;24.40
67101;DHT22;54019;61.746;16.106;2023-02-03T13:46:22;22.30;24.60
67101;DHT22;54019;61.746;16.106;2023-02-03T13:48:49;22.30;24.50
67101;DHT22;54019;61.746;16.106;2023-02-03T13:51:17;22.30;24.40
67101;DHT22;54019;61.746;16.106;2023-02-03T13:53:46;22.20;24.30
67101;DHT22;54019;61.746;16.106;2023-02-03T13:56:18;22.30;24.70
67101;DHT22;54019;61.746;16.106;2023-02-03T13:58:58;22.20;26.00
67101;DHT22;54019;61.746;16.106;2023-02-03T14:01:33;22.20;25.50
67101;DHT22;54019;61.746;16.106;2023-02-03T14:03:59;22.30;25.60
67101;DHT22;54019;61.746;16.106;2023-02-03T14:06:59;22.30;25.90
67101;DHT22;54019;61.746;16.106;2023-02-03T14:09:44;22.30;24.70
67101;DHT22;54019;61.746;16.106;2023-02-03T14:12:31;22.40;23.90
67101;DHT22;54019;61.746;16.106;2023-02-03T14:14:59;22.50;23.60
67101;DHT22;54019;61.746;16.106;2023-02-03T14:20:47;22.70;24.40
67101;DHT22;54019;61.746;16.106;2023-02-03T14:23:26;22.90;23.10
67101;DHT22;54019;61.746;16.106;2023-02-03T14:25:54;22.90;23.00
67101;DHT22;54019;61.746;16.106;2023-02-03T14:28:24;22.90;23.90
67101;DHT22;54019;61.746;16.106;2023-02-03T14:31:05;22.80;24.80
67101;DHT22;54019;61.746;16.106;2023-02-03T14:33:48;22.80;24.40
67101;DHT22;54019;61.746;16.106;2023-02-03T14:36:38;22.80;24.40
67101;DHT22;54019;61.746;16.106;2023-02-03T14:39:22;22.80;24.90
67101;DHT22;54019;61.746;16.106;2023-02-03T14:41:57;22.80;27.60
67101;DHT22;54019;61.746;16.106;2023-02-03T14:44:34;22.70;26.90
67101;DHT22;54019;61.746;16.106;2023-02-03T14:47:09;22.70;25.20
67101;DHT22;54019;61.746;16.106;2023-02-03T14:49:46;22.70;27.20
67101;DHT22;54019;61.746;16.106;2023-02-03T14:52:27;22.80;29.60
67101;DHT22;54019;61.746;16.106;2023-02-03T14:55:16;22.90;29.20
67101;DHT22;54019;61.746;16.106;2023-02-03T14:57:48;23.00;27.60
67101;DHT22;54019;61.746;16.106;2023-02-03T15:00:28;23.40;27.50
67101;DHT22;54019;61.746;16.106;2023-02-03T15:03:16;23.30;30.00
67101;DHT22;54019;61.746;16.106;2023-02-03T15:05:44;23.40;28.10
67101;DHT22;54019;61.746;16.106;2023-02-03T15:08:36;23.50;28.20
67101;DHT22;54019;61.746;16.106;2023-02-03T15:11:25;23.60;28.00
67101;DHT22;54019;61.746;16.106;2023-02-03T15:13:51;23.60;27.50
67101;DHT22;54019;61.746;16.106;2023-02-03T15:16:19;23.60;27.20
67101;DHT22;54019;61.746;16.106;2023-02-03T15:18:51;23.60;27.00
67101;DHT22;54019;61.746;16.106;2023-02-03T15:21:19;23.60;26.00
67101;DHT22;54019;61.746;16.106;2023-02-03T15:23:47;23.60;26.00
67101;DHT22;54019;61.746;16.106;2023-02-03T15:26:15;23.50;25.90
67101;DHT22;54019;61.746;16.106;2023-02-03T15:28:41;23.40;25.70
67101;DHT22;54019;61.746;16.106;2023-02-03T15:31:11;23.40;25.80
67101;DHT22;54019;61.746;16.106;2023-02-03T15:33:41;23.40;25.40
67101;DHT22;54019;61.746;16.106;2023-02-03T15:36:11;23.30;25.00
67101;DHT22;54019;61.746;16.106;2023-02-03T15:38:41;23.30;24.80
67101;DHT22;54019;61.746;16.106;2023-02-03T15:41:17;23.30;24.50
67101;DHT22;54019;61.746;16.106;2023-02-03T15:43:46;23.30;23.90
67101;DHT22;54019;61.746;16.106;2023-02-03T15:46:15;23.20;23.40
67101;DHT22;54019;61.746;16.106;2023-02-03T15:48:44;23.30;23.00
67101;DHT22;54019;61.746;16.106;2023-02-03T15:51:13;23.30;22.70
67101;DHT22;54019;61.746;16.106;2023-02-03T15:53:50;23.30;22.30
67101;DHT22;54019;61.746;16.106;2023-02-03T15:56:25;23.30;22.00
67101;DHT22;54019;61.746;16.106;2023-02-03T15:58:53;23.30;21.80
67101;DHT22;54019;61.746;16.106;2023-02-03T16:01:21;23.30;21.80
67101;DHT22;54019;61.746;16.106;2023-02-03T16:03:50;23.20;21.70